<?xml version="1.0" encoding="UTF-8" standalone="no" ?>
<gpx xmlns="http://www.topografix.com/GPX/1/1" xmlns:xsi="http://www.w3.org/2001/XMLSchema-instance" xsi:schemaLocation="http://www.topografix.com/GPX/1/1 http://www.topografix.com/GPX/1/1/gpx.xsd" version="1.1" creator="VisuGPX - https://www.visugpx.com">
  <metadata>
    <name>14098071-ARRONNES BUSSET</name>
    <desc><![CDATA[CIRCUIT NON BALISE A FAIRE AVEC LA CARTE EN MAIN OU GPS]]></desc>
  </metadata>
  <trk>
    <name><![CDATA[14098071-ARRONNES BUSSET]]></name>
    <trkseg>
      <trkpt lat="46.05788" lon="3.5484">
        <ele>498</ele>
        <time>2022-01-07T10:30:50Z</time>
      </trkpt>
      <trkpt lat="46.05775" lon="3.54787">
        <ele>498</ele>
        <time>2022-01-07T10:31:42Z</time>
      </trkpt>
      <trkpt lat="46.05776" lon="3.54769">
        <ele>498</ele>
        <time>2022-01-07T10:31:59Z</time>
      </trkpt>
      <trkpt lat="46.05768" lon="3.54761">
        <ele>498</ele>
        <time>2022-01-07T10:32:12Z</time>
      </trkpt>
      <trkpt lat="46.05749" lon="3.54775">
        <ele>499</ele>
        <time>2022-01-07T10:32:40Z</time>
      </trkpt>
      <trkpt lat="46.05713" lon="3.54774">
        <ele>504</ele>
        <time>2022-01-07T10:33:28Z</time>
      </trkpt>
      <trkpt lat="46.05693" lon="3.5477">
        <ele>507</ele>
        <time>2022-01-07T10:33:55Z</time>
      </trkpt>
      <trkpt lat="46.05676" lon="3.5478">
        <ele>508</ele>
        <time>2022-01-07T10:34:20Z</time>
      </trkpt>
      <trkpt lat="46.05658" lon="3.54785">
        <ele>510</ele>
        <time>2022-01-07T10:34:44Z</time>
      </trkpt>
      <trkpt lat="46.0564" lon="3.54784">
        <ele>512</ele>
        <time>2022-01-07T10:35:08Z</time>
      </trkpt>
      <trkpt lat="46.05621" lon="3.54786">
        <ele>514</ele>
        <time>2022-01-07T10:35:34Z</time>
      </trkpt>
      <trkpt lat="46.05603" lon="3.54783">
        <ele>516</ele>
        <time>2022-01-07T10:35:58Z</time>
      </trkpt>
      <trkpt lat="46.05584" lon="3.54781">
        <ele>518</ele>
        <time>2022-01-07T10:36:23Z</time>
      </trkpt>
      <trkpt lat="46.05566" lon="3.54782">
        <ele>520</ele>
        <time>2022-01-07T10:36:47Z</time>
      </trkpt>
      <trkpt lat="46.05548" lon="3.54779">
        <ele>523</ele>
        <time>2022-01-07T10:37:11Z</time>
      </trkpt>
      <trkpt lat="46.05529" lon="3.54775">
        <ele>525</ele>
        <time>2022-01-07T10:37:37Z</time>
      </trkpt>
      <trkpt lat="46.05511" lon="3.54776">
        <ele>527</ele>
        <time>2022-01-07T10:38:01Z</time>
      </trkpt>
      <trkpt lat="46.05493" lon="3.54776">
        <ele>530</ele>
        <time>2022-01-07T10:38:25Z</time>
      </trkpt>
      <trkpt lat="46.05474" lon="3.54777">
        <ele>532</ele>
        <time>2022-01-07T10:38:51Z</time>
      </trkpt>
      <trkpt lat="46.05456" lon="3.54778">
        <ele>535</ele>
        <time>2022-01-07T10:39:15Z</time>
      </trkpt>
      <trkpt lat="46.05438" lon="3.54776">
        <ele>538</ele>
        <time>2022-01-07T10:39:39Z</time>
      </trkpt>
      <trkpt lat="46.05419" lon="3.54772">
        <ele>541</ele>
        <time>2022-01-07T10:40:04Z</time>
      </trkpt>
      <trkpt lat="46.05401" lon="3.54767">
        <ele>543</ele>
        <time>2022-01-07T10:40:29Z</time>
      </trkpt>
      <trkpt lat="46.05382" lon="3.54763">
        <ele>544</ele>
        <time>2022-01-07T10:40:54Z</time>
      </trkpt>
      <trkpt lat="46.05347" lon="3.54747">
        <ele>546</ele>
        <time>2022-01-07T10:41:43Z</time>
      </trkpt>
      <trkpt lat="46.05329" lon="3.5474">
        <ele>547</ele>
        <time>2022-01-07T10:42:08Z</time>
      </trkpt>
      <trkpt lat="46.05311" lon="3.54733">
        <ele>548</ele>
        <time>2022-01-07T10:42:33Z</time>
      </trkpt>
      <trkpt lat="46.05294" lon="3.54727">
        <ele>549</ele>
        <time>2022-01-07T10:42:57Z</time>
      </trkpt>
      <trkpt lat="46.05275" lon="3.54724">
        <ele>551</ele>
        <time>2022-01-07T10:43:22Z</time>
      </trkpt>
      <trkpt lat="46.05257" lon="3.54721">
        <ele>552</ele>
        <time>2022-01-07T10:43:46Z</time>
      </trkpt>
      <trkpt lat="46.05239" lon="3.54717">
        <ele>553</ele>
        <time>2022-01-07T10:44:10Z</time>
      </trkpt>
      <trkpt lat="46.05221" lon="3.54712">
        <ele>553</ele>
        <time>2022-01-07T10:44:35Z</time>
      </trkpt>
      <trkpt lat="46.05202" lon="3.54704">
        <ele>554</ele>
        <time>2022-01-07T10:45:01Z</time>
      </trkpt>
      <trkpt lat="46.05185" lon="3.54692">
        <ele>555</ele>
        <time>2022-01-07T10:45:27Z</time>
      </trkpt>
      <trkpt lat="46.05169" lon="3.5468">
        <ele>556</ele>
        <time>2022-01-07T10:45:51Z</time>
      </trkpt>
      <trkpt lat="46.05134" lon="3.54659">
        <ele>558</ele>
        <time>2022-01-07T10:46:41Z</time>
      </trkpt>
      <trkpt lat="46.05116" lon="3.54649">
        <ele>559</ele>
        <time>2022-01-07T10:47:07Z</time>
      </trkpt>
      <trkpt lat="46.0508" lon="3.54635">
        <ele>562</ele>
        <time>2022-01-07T10:47:57Z</time>
      </trkpt>
      <trkpt lat="46.05062" lon="3.54625">
        <ele>563</ele>
        <time>2022-01-07T10:48:23Z</time>
      </trkpt>
      <trkpt lat="46.05044" lon="3.5462">
        <ele>564</ele>
        <time>2022-01-07T10:48:47Z</time>
      </trkpt>
      <trkpt lat="46.05026" lon="3.5461">
        <ele>566</ele>
        <time>2022-01-07T10:49:13Z</time>
      </trkpt>
      <trkpt lat="46.05008" lon="3.54611">
        <ele>567</ele>
        <time>2022-01-07T10:49:37Z</time>
      </trkpt>
      <trkpt lat="46.04991" lon="3.54601">
        <ele>568</ele>
        <time>2022-01-07T10:50:01Z</time>
      </trkpt>
      <trkpt lat="46.04972" lon="3.54593">
        <ele>567</ele>
        <time>2022-01-07T10:50:28Z</time>
      </trkpt>
      <trkpt lat="46.0494" lon="3.54566">
        <ele>566</ele>
        <time>2022-01-07T10:51:17Z</time>
      </trkpt>
      <trkpt lat="46.04923" lon="3.54554">
        <ele>565</ele>
        <time>2022-01-07T10:51:42Z</time>
      </trkpt>
      <trkpt lat="46.04905" lon="3.5455">
        <ele>565</ele>
        <time>2022-01-07T10:52:07Z</time>
      </trkpt>
      <trkpt lat="46.04887" lon="3.54546">
        <ele>565</ele>
        <time>2022-01-07T10:52:31Z</time>
      </trkpt>
      <trkpt lat="46.04869" lon="3.54547">
        <ele>566</ele>
        <time>2022-01-07T10:52:55Z</time>
      </trkpt>
      <trkpt lat="46.0485" lon="3.54545">
        <ele>566</ele>
        <time>2022-01-07T10:53:21Z</time>
      </trkpt>
      <trkpt lat="46.04831" lon="3.54548">
        <ele>566</ele>
        <time>2022-01-07T10:53:46Z</time>
      </trkpt>
      <trkpt lat="46.04813" lon="3.54548">
        <ele>566</ele>
        <time>2022-01-07T10:54:10Z</time>
      </trkpt>
      <trkpt lat="46.04794" lon="3.54551">
        <ele>567</ele>
        <time>2022-01-07T10:54:36Z</time>
      </trkpt>
      <trkpt lat="46.04776" lon="3.54556">
        <ele>567</ele>
        <time>2022-01-07T10:55:00Z</time>
      </trkpt>
      <trkpt lat="46.04757" lon="3.54563">
        <ele>568</ele>
        <time>2022-01-07T10:55:26Z</time>
      </trkpt>
      <trkpt lat="46.0474" lon="3.54571">
        <ele>568</ele>
        <time>2022-01-07T10:55:50Z</time>
      </trkpt>
      <trkpt lat="46.04723" lon="3.54586">
        <ele>569</ele>
        <time>2022-01-07T10:56:17Z</time>
      </trkpt>
      <trkpt lat="46.04708" lon="3.546">
        <ele>569</ele>
        <time>2022-01-07T10:56:41Z</time>
      </trkpt>
      <trkpt lat="46.04691" lon="3.5461">
        <ele>569</ele>
        <time>2022-01-07T10:57:05Z</time>
      </trkpt>
      <trkpt lat="46.04673" lon="3.54621">
        <ele>568</ele>
        <time>2022-01-07T10:57:31Z</time>
      </trkpt>
      <trkpt lat="46.04657" lon="3.54633">
        <ele>567</ele>
        <time>2022-01-07T10:57:55Z</time>
      </trkpt>
      <trkpt lat="46.0464" lon="3.54645">
        <ele>566</ele>
        <time>2022-01-07T10:58:20Z</time>
      </trkpt>
      <trkpt lat="46.04622" lon="3.54649">
        <ele>566</ele>
        <time>2022-01-07T10:58:45Z</time>
      </trkpt>
      <trkpt lat="46.04603" lon="3.54645">
        <ele>564</ele>
        <time>2022-01-07T10:59:10Z</time>
      </trkpt>
      <trkpt lat="46.04586" lon="3.54654">
        <ele>564</ele>
        <time>2022-01-07T10:59:35Z</time>
      </trkpt>
      <trkpt lat="46.04571" lon="3.54671">
        <ele>564</ele>
        <time>2022-01-07T11:00:00Z</time>
      </trkpt>
      <trkpt lat="46.04559" lon="3.54691">
        <ele>565</ele>
        <time>2022-01-07T11:00:24Z</time>
      </trkpt>
      <trkpt lat="46.04545" lon="3.54707">
        <ele>566</ele>
        <time>2022-01-07T11:00:48Z</time>
      </trkpt>
      <trkpt lat="46.04535" lon="3.54729">
        <ele>568</ele>
        <time>2022-01-07T11:01:13Z</time>
      </trkpt>
      <trkpt lat="46.04519" lon="3.5474">
        <ele>569</ele>
        <time>2022-01-07T11:01:36Z</time>
      </trkpt>
      <trkpt lat="46.04503" lon="3.54752">
        <ele>571</ele>
        <time>2022-01-07T11:02:00Z</time>
      </trkpt>
      <trkpt lat="46.04486" lon="3.54763">
        <ele>571</ele>
        <time>2022-01-07T11:02:25Z</time>
      </trkpt>
      <trkpt lat="46.04469" lon="3.54773">
        <ele>571</ele>
        <time>2022-01-07T11:02:50Z</time>
      </trkpt>
      <trkpt lat="46.04451" lon="3.54782">
        <ele>572</ele>
        <time>2022-01-07T11:03:15Z</time>
      </trkpt>
      <trkpt lat="46.04432" lon="3.54788">
        <ele>572</ele>
        <time>2022-01-07T11:03:41Z</time>
      </trkpt>
      <trkpt lat="46.04434" lon="3.5476">
        <ele>571</ele>
        <time>2022-01-07T11:04:07Z</time>
      </trkpt>
      <trkpt lat="46.04445" lon="3.54738">
        <ele>569</ele>
        <time>2022-01-07T11:04:32Z</time>
      </trkpt>
      <trkpt lat="46.04454" lon="3.54716">
        <ele>568</ele>
        <time>2022-01-07T11:04:56Z</time>
      </trkpt>
      <trkpt lat="46.04459" lon="3.54691">
        <ele>566</ele>
        <time>2022-01-07T11:05:20Z</time>
      </trkpt>
      <trkpt lat="46.04463" lon="3.54663">
        <ele>564</ele>
        <time>2022-01-07T11:05:47Z</time>
      </trkpt>
      <trkpt lat="46.04465" lon="3.54637">
        <ele>562</ele>
        <time>2022-01-07T11:06:11Z</time>
      </trkpt>
      <trkpt lat="46.0445" lon="3.5462">
        <ele>561</ele>
        <time>2022-01-07T11:06:36Z</time>
      </trkpt>
      <trkpt lat="46.04435" lon="3.54602">
        <ele>560</ele>
        <time>2022-01-07T11:07:02Z</time>
      </trkpt>
      <trkpt lat="46.0442" lon="3.54584">
        <ele>559</ele>
        <time>2022-01-07T11:07:28Z</time>
      </trkpt>
      <trkpt lat="46.04406" lon="3.54568">
        <ele>558</ele>
        <time>2022-01-07T11:07:52Z</time>
      </trkpt>
      <trkpt lat="46.04394" lon="3.54546">
        <ele>558</ele>
        <time>2022-01-07T11:08:18Z</time>
      </trkpt>
      <trkpt lat="46.04382" lon="3.54524">
        <ele>557</ele>
        <time>2022-01-07T11:08:44Z</time>
      </trkpt>
      <trkpt lat="46.04364" lon="3.54513">
        <ele>557</ele>
        <time>2022-01-07T11:09:10Z</time>
      </trkpt>
      <trkpt lat="46.04347" lon="3.54503">
        <ele>557</ele>
        <time>2022-01-07T11:09:35Z</time>
      </trkpt>
      <trkpt lat="46.04331" lon="3.54488">
        <ele>557</ele>
        <time>2022-01-07T11:10:00Z</time>
      </trkpt>
      <trkpt lat="46.04322" lon="3.54465">
        <ele>557</ele>
        <time>2022-01-07T11:10:25Z</time>
      </trkpt>
      <trkpt lat="46.04311" lon="3.54443">
        <ele>557</ele>
        <time>2022-01-07T11:10:50Z</time>
      </trkpt>
      <trkpt lat="46.04305" lon="3.54418">
        <ele>556</ele>
        <time>2022-01-07T11:11:14Z</time>
      </trkpt>
      <trkpt lat="46.04298" lon="3.54391">
        <ele>555</ele>
        <time>2022-01-07T11:11:41Z</time>
      </trkpt>
      <trkpt lat="46.04293" lon="3.54365">
        <ele>555</ele>
        <time>2022-01-07T11:12:06Z</time>
      </trkpt>
      <trkpt lat="46.04288" lon="3.54339">
        <ele>554</ele>
        <time>2022-01-07T11:12:31Z</time>
      </trkpt>
      <trkpt lat="46.04278" lon="3.54317">
        <ele>554</ele>
        <time>2022-01-07T11:12:55Z</time>
      </trkpt>
      <trkpt lat="46.04264" lon="3.54298">
        <ele>553</ele>
        <time>2022-01-07T11:13:21Z</time>
      </trkpt>
      <trkpt lat="46.04248" lon="3.54284">
        <ele>553</ele>
        <time>2022-01-07T11:13:46Z</time>
      </trkpt>
      <trkpt lat="46.0423" lon="3.54274">
        <ele>552</ele>
        <time>2022-01-07T11:14:12Z</time>
      </trkpt>
      <trkpt lat="46.04212" lon="3.5427">
        <ele>550</ele>
        <time>2022-01-07T11:14:36Z</time>
      </trkpt>
      <trkpt lat="46.04193" lon="3.54266">
        <ele>549</ele>
        <time>2022-01-07T11:15:02Z</time>
      </trkpt>
      <trkpt lat="46.04175" lon="3.54259">
        <ele>547</ele>
        <time>2022-01-07T11:15:26Z</time>
      </trkpt>
      <trkpt lat="46.04157" lon="3.54255">
        <ele>546</ele>
        <time>2022-01-07T11:15:51Z</time>
      </trkpt>
      <trkpt lat="46.04139" lon="3.54251">
        <ele>544</ele>
        <time>2022-01-07T11:16:15Z</time>
      </trkpt>
      <trkpt lat="46.0412" lon="3.54251">
        <ele>543</ele>
        <time>2022-01-07T11:16:40Z</time>
      </trkpt>
      <trkpt lat="46.04101" lon="3.54246">
        <ele>542</ele>
        <time>2022-01-07T11:17:06Z</time>
      </trkpt>
      <trkpt lat="46.04084" lon="3.54237">
        <ele>541</ele>
        <time>2022-01-07T11:17:30Z</time>
      </trkpt>
      <trkpt lat="46.04067" lon="3.54224">
        <ele>540</ele>
        <time>2022-01-07T11:17:56Z</time>
      </trkpt>
      <trkpt lat="46.04053" lon="3.54205">
        <ele>540</ele>
        <time>2022-01-07T11:18:22Z</time>
      </trkpt>
      <trkpt lat="46.04061" lon="3.54181">
        <ele>539</ele>
        <time>2022-01-07T11:18:46Z</time>
      </trkpt>
      <trkpt lat="46.04067" lon="3.54156">
        <ele>539</ele>
        <time>2022-01-07T11:19:11Z</time>
      </trkpt>
      <trkpt lat="46.04069" lon="3.54129">
        <ele>540</ele>
        <time>2022-01-07T11:19:36Z</time>
      </trkpt>
      <trkpt lat="46.04067" lon="3.54104">
        <ele>541</ele>
        <time>2022-01-07T11:19:59Z</time>
      </trkpt>
      <trkpt lat="46.04059" lon="3.54079">
        <ele>543</ele>
        <time>2022-01-07T11:20:25Z</time>
      </trkpt>
      <trkpt lat="46.04055" lon="3.54052">
        <ele>544</ele>
        <time>2022-01-07T11:20:50Z</time>
      </trkpt>
      <trkpt lat="46.04048" lon="3.53999">
        <ele>549</ele>
        <time>2022-01-07T11:21:40Z</time>
      </trkpt>
      <trkpt lat="46.04043" lon="3.53973">
        <ele>549</ele>
        <time>2022-01-07T11:22:05Z</time>
      </trkpt>
      <trkpt lat="46.0404" lon="3.53946">
        <ele>550</ele>
        <time>2022-01-07T11:22:31Z</time>
      </trkpt>
      <trkpt lat="46.04038" lon="3.53918">
        <ele>551</ele>
        <time>2022-01-07T11:22:57Z</time>
      </trkpt>
      <trkpt lat="46.04041" lon="3.53892">
        <ele>550</ele>
        <time>2022-01-07T11:23:21Z</time>
      </trkpt>
      <trkpt lat="46.04041" lon="3.53866">
        <ele>550</ele>
        <time>2022-01-07T11:23:45Z</time>
      </trkpt>
      <trkpt lat="46.04043" lon="3.53839">
        <ele>550</ele>
        <time>2022-01-07T11:24:10Z</time>
      </trkpt>
      <trkpt lat="46.04048" lon="3.53813">
        <ele>548</ele>
        <time>2022-01-07T11:24:35Z</time>
      </trkpt>
      <trkpt lat="46.04057" lon="3.53788">
        <ele>547</ele>
        <time>2022-01-07T11:25:02Z</time>
      </trkpt>
      <trkpt lat="46.04065" lon="3.53764">
        <ele>546</ele>
        <time>2022-01-07T11:25:26Z</time>
      </trkpt>
      <trkpt lat="46.04072" lon="3.5374">
        <ele>545</ele>
        <time>2022-01-07T11:25:50Z</time>
      </trkpt>
      <trkpt lat="46.04075" lon="3.53712">
        <ele>546</ele>
        <time>2022-01-07T11:26:17Z</time>
      </trkpt>
      <trkpt lat="46.0407" lon="3.53687">
        <ele>547</ele>
        <time>2022-01-07T11:26:41Z</time>
      </trkpt>
      <trkpt lat="46.04081" lon="3.53665">
        <ele>547</ele>
        <time>2022-01-07T11:27:06Z</time>
      </trkpt>
      <trkpt lat="46.04099" lon="3.53657">
        <ele>546</ele>
        <time>2022-01-07T11:27:31Z</time>
      </trkpt>
      <trkpt lat="46.04115" lon="3.53644">
        <ele>544</ele>
        <time>2022-01-07T11:27:55Z</time>
      </trkpt>
      <trkpt lat="46.04128" lon="3.53625">
        <ele>543</ele>
        <time>2022-01-07T11:28:20Z</time>
      </trkpt>
      <trkpt lat="46.04137" lon="3.53602">
        <ele>542</ele>
        <time>2022-01-07T11:28:45Z</time>
      </trkpt>
      <trkpt lat="46.04149" lon="3.53578">
        <ele>541</ele>
        <time>2022-01-07T11:29:12Z</time>
      </trkpt>
      <trkpt lat="46.04161" lon="3.53557">
        <ele>540</ele>
        <time>2022-01-07T11:29:37Z</time>
      </trkpt>
      <trkpt lat="46.04175" lon="3.5354">
        <ele>539</ele>
        <time>2022-01-07T11:30:02Z</time>
      </trkpt>
      <trkpt lat="46.04192" lon="3.53528">
        <ele>538</ele>
        <time>2022-01-07T11:30:27Z</time>
      </trkpt>
      <trkpt lat="46.04209" lon="3.5352">
        <ele>536</ele>
        <time>2022-01-07T11:30:51Z</time>
      </trkpt>
      <trkpt lat="46.04228" lon="3.53519">
        <ele>534</ele>
        <time>2022-01-07T11:31:16Z</time>
      </trkpt>
      <trkpt lat="46.04246" lon="3.53514">
        <ele>532</ele>
        <time>2022-01-07T11:31:41Z</time>
      </trkpt>
      <trkpt lat="46.04263" lon="3.53508">
        <ele>532</ele>
        <time>2022-01-07T11:32:04Z</time>
      </trkpt>
      <trkpt lat="46.04282" lon="3.53507">
        <ele>532</ele>
        <time>2022-01-07T11:32:29Z</time>
      </trkpt>
      <trkpt lat="46.04299" lon="3.53515">
        <ele>532</ele>
        <time>2022-01-07T11:32:53Z</time>
      </trkpt>
      <trkpt lat="46.04317" lon="3.53523">
        <ele>531</ele>
        <time>2022-01-07T11:33:18Z</time>
      </trkpt>
      <trkpt lat="46.04333" lon="3.53535">
        <ele>531</ele>
        <time>2022-01-07T11:33:42Z</time>
      </trkpt>
      <trkpt lat="46.04367" lon="3.53555">
        <ele>534</ele>
        <time>2022-01-07T11:34:31Z</time>
      </trkpt>
      <trkpt lat="46.04384" lon="3.53566">
        <ele>536</ele>
        <time>2022-01-07T11:34:56Z</time>
      </trkpt>
      <trkpt lat="46.044" lon="3.53579">
        <ele>537</ele>
        <time>2022-01-07T11:35:21Z</time>
      </trkpt>
      <trkpt lat="46.04431" lon="3.53609">
        <ele>541</ele>
        <time>2022-01-07T11:36:11Z</time>
      </trkpt>
      <trkpt lat="46.04446" lon="3.53624">
        <ele>543</ele>
        <time>2022-01-07T11:36:35Z</time>
      </trkpt>
      <trkpt lat="46.04461" lon="3.53641">
        <ele>545</ele>
        <time>2022-01-07T11:37:00Z</time>
      </trkpt>
      <trkpt lat="46.04474" lon="3.5366">
        <ele>546</ele>
        <time>2022-01-07T11:37:25Z</time>
      </trkpt>
      <trkpt lat="46.04488" lon="3.53676">
        <ele>547</ele>
        <time>2022-01-07T11:37:49Z</time>
      </trkpt>
      <trkpt lat="46.04502" lon="3.53692">
        <ele>548</ele>
        <time>2022-01-07T11:38:13Z</time>
      </trkpt>
      <trkpt lat="46.04517" lon="3.53708">
        <ele>549</ele>
        <time>2022-01-07T11:38:38Z</time>
      </trkpt>
      <trkpt lat="46.04531" lon="3.53726">
        <ele>550</ele>
        <time>2022-01-07T11:39:03Z</time>
      </trkpt>
      <trkpt lat="46.04562" lon="3.53757">
        <ele>551</ele>
        <time>2022-01-07T11:39:53Z</time>
      </trkpt>
      <trkpt lat="46.04576" lon="3.53773">
        <ele>552</ele>
        <time>2022-01-07T11:40:17Z</time>
      </trkpt>
      <trkpt lat="46.04588" lon="3.53793">
        <ele>552</ele>
        <time>2022-01-07T11:40:41Z</time>
      </trkpt>
      <trkpt lat="46.04602" lon="3.53812">
        <ele>553</ele>
        <time>2022-01-07T11:41:07Z</time>
      </trkpt>
      <trkpt lat="46.04616" lon="3.5383">
        <ele>553</ele>
        <time>2022-01-07T11:41:32Z</time>
      </trkpt>
      <trkpt lat="46.04626" lon="3.53852">
        <ele>554</ele>
        <time>2022-01-07T11:41:57Z</time>
      </trkpt>
      <trkpt lat="46.04639" lon="3.53869">
        <ele>554</ele>
        <time>2022-01-07T11:42:20Z</time>
      </trkpt>
      <trkpt lat="46.04652" lon="3.53891">
        <ele>555</ele>
        <time>2022-01-07T11:42:47Z</time>
      </trkpt>
      <trkpt lat="46.04664" lon="3.5391">
        <ele>556</ele>
        <time>2022-01-07T11:43:11Z</time>
      </trkpt>
      <trkpt lat="46.04672" lon="3.53933">
        <ele>556</ele>
        <time>2022-01-07T11:43:34Z</time>
      </trkpt>
      <trkpt lat="46.04689" lon="3.53922">
        <ele>556</ele>
        <time>2022-01-07T11:43:59Z</time>
      </trkpt>
      <trkpt lat="46.04704" lon="3.53908">
        <ele>556</ele>
        <time>2022-01-07T11:44:23Z</time>
      </trkpt>
      <trkpt lat="46.04721" lon="3.53897">
        <ele>556</ele>
        <time>2022-01-07T11:44:48Z</time>
      </trkpt>
      <trkpt lat="46.0474" lon="3.53891">
        <ele>557</ele>
        <time>2022-01-07T11:45:14Z</time>
      </trkpt>
      <trkpt lat="46.04756" lon="3.53878">
        <ele>557</ele>
        <time>2022-01-07T11:45:38Z</time>
      </trkpt>
      <trkpt lat="46.04767" lon="3.53856">
        <ele>557</ele>
        <time>2022-01-07T11:46:04Z</time>
      </trkpt>
      <trkpt lat="46.04781" lon="3.53837">
        <ele>558</ele>
        <time>2022-01-07T11:46:29Z</time>
      </trkpt>
      <trkpt lat="46.04797" lon="3.53822">
        <ele>558</ele>
        <time>2022-01-07T11:46:55Z</time>
      </trkpt>
      <trkpt lat="46.04813" lon="3.53807">
        <ele>559</ele>
        <time>2022-01-07T11:47:20Z</time>
      </trkpt>
      <trkpt lat="46.0483" lon="3.53799">
        <ele>559</ele>
        <time>2022-01-07T11:47:44Z</time>
      </trkpt>
      <trkpt lat="46.04849" lon="3.53792">
        <ele>560</ele>
        <time>2022-01-07T11:48:10Z</time>
      </trkpt>
      <trkpt lat="46.04868" lon="3.53792">
        <ele>560</ele>
        <time>2022-01-07T11:48:36Z</time>
      </trkpt>
      <trkpt lat="46.04887" lon="3.53792">
        <ele>560</ele>
        <time>2022-01-07T11:49:01Z</time>
      </trkpt>
      <trkpt lat="46.04905" lon="3.538">
        <ele>561</ele>
        <time>2022-01-07T11:49:26Z</time>
      </trkpt>
      <trkpt lat="46.04923" lon="3.53796">
        <ele>561</ele>
        <time>2022-01-07T11:49:50Z</time>
      </trkpt>
      <trkpt lat="46.04931" lon="3.53772">
        <ele>561</ele>
        <time>2022-01-07T11:50:15Z</time>
      </trkpt>
      <trkpt lat="46.04934" lon="3.53744">
        <ele>562</ele>
        <time>2022-01-07T11:50:41Z</time>
      </trkpt>
      <trkpt lat="46.04937" lon="3.53718">
        <ele>561</ele>
        <time>2022-01-07T11:51:06Z</time>
      </trkpt>
      <trkpt lat="46.04945" lon="3.53667">
        <ele>560</ele>
        <time>2022-01-07T11:51:54Z</time>
      </trkpt>
      <trkpt lat="46.04949" lon="3.53641">
        <ele>560</ele>
        <time>2022-01-07T11:52:19Z</time>
      </trkpt>
      <trkpt lat="46.04956" lon="3.53589">
        <ele>559</ele>
        <time>2022-01-07T11:53:08Z</time>
      </trkpt>
      <trkpt lat="46.04959" lon="3.53563">
        <ele>558</ele>
        <time>2022-01-07T11:53:32Z</time>
      </trkpt>
      <trkpt lat="46.04963" lon="3.53538">
        <ele>557</ele>
        <time>2022-01-07T11:53:56Z</time>
      </trkpt>
      <trkpt lat="46.04968" lon="3.53512">
        <ele>556</ele>
        <time>2022-01-07T11:54:21Z</time>
      </trkpt>
      <trkpt lat="46.0497" lon="3.53486">
        <ele>555</ele>
        <time>2022-01-07T11:54:45Z</time>
      </trkpt>
      <trkpt lat="46.04974" lon="3.53459">
        <ele>554</ele>
        <time>2022-01-07T11:55:11Z</time>
      </trkpt>
      <trkpt lat="46.04979" lon="3.53432">
        <ele>553</ele>
        <time>2022-01-07T11:55:37Z</time>
      </trkpt>
      <trkpt lat="46.04988" lon="3.53407">
        <ele>552</ele>
        <time>2022-01-07T11:56:03Z</time>
      </trkpt>
      <trkpt lat="46.05003" lon="3.53358">
        <ele>550</ele>
        <time>2022-01-07T11:56:52Z</time>
      </trkpt>
      <trkpt lat="46.05011" lon="3.53333">
        <ele>548</ele>
        <time>2022-01-07T11:57:18Z</time>
      </trkpt>
      <trkpt lat="46.05017" lon="3.53307">
        <ele>548</ele>
        <time>2022-01-07T11:57:43Z</time>
      </trkpt>
      <trkpt lat="46.05025" lon="3.53284">
        <ele>548</ele>
        <time>2022-01-07T11:58:07Z</time>
      </trkpt>
      <trkpt lat="46.05032" lon="3.5326">
        <ele>548</ele>
        <time>2022-01-07T11:58:31Z</time>
      </trkpt>
      <trkpt lat="46.05039" lon="3.53234">
        <ele>547</ele>
        <time>2022-01-07T11:58:57Z</time>
      </trkpt>
      <trkpt lat="46.05047" lon="3.5321">
        <ele>546</ele>
        <time>2022-01-07T11:59:22Z</time>
      </trkpt>
      <trkpt lat="46.05055" lon="3.53185">
        <ele>544</ele>
        <time>2022-01-07T11:59:47Z</time>
      </trkpt>
      <trkpt lat="46.05061" lon="3.53161">
        <ele>543</ele>
        <time>2022-01-07T12:00:11Z</time>
      </trkpt>
      <trkpt lat="46.05071" lon="3.53138">
        <ele>541</ele>
        <time>2022-01-07T12:00:36Z</time>
      </trkpt>
      <trkpt lat="46.05108" lon="3.53013">
        <ele>534</ele>
        <time>2022-01-07T12:02:42Z</time>
      </trkpt>
      <trkpt lat="46.05115" lon="3.52988">
        <ele>534</ele>
        <time>2022-01-07T12:03:07Z</time>
      </trkpt>
      <trkpt lat="46.05124" lon="3.52936">
        <ele>533</ele>
        <time>2022-01-07T12:03:56Z</time>
      </trkpt>
      <trkpt lat="46.05129" lon="3.52909">
        <ele>533</ele>
        <time>2022-01-07T12:04:22Z</time>
      </trkpt>
      <trkpt lat="46.0513" lon="3.52882">
        <ele>532</ele>
        <time>2022-01-07T12:04:47Z</time>
      </trkpt>
      <trkpt lat="46.05135" lon="3.52856">
        <ele>531</ele>
        <time>2022-01-07T12:05:12Z</time>
      </trkpt>
      <trkpt lat="46.05139" lon="3.5283">
        <ele>531</ele>
        <time>2022-01-07T12:05:37Z</time>
      </trkpt>
      <trkpt lat="46.0514" lon="3.52803">
        <ele>530</ele>
        <time>2022-01-07T12:06:02Z</time>
      </trkpt>
      <trkpt lat="46.05144" lon="3.52775">
        <ele>530</ele>
        <time>2022-01-07T12:06:28Z</time>
      </trkpt>
      <trkpt lat="46.05146" lon="3.52749">
        <ele>529</ele>
        <time>2022-01-07T12:06:53Z</time>
      </trkpt>
      <trkpt lat="46.05149" lon="3.52723">
        <ele>529</ele>
        <time>2022-01-07T12:07:17Z</time>
      </trkpt>
      <trkpt lat="46.05151" lon="3.52696">
        <ele>528</ele>
        <time>2022-01-07T12:07:42Z</time>
      </trkpt>
      <trkpt lat="46.0515" lon="3.52615">
        <ele>526</ele>
        <time>2022-01-07T12:08:57Z</time>
      </trkpt>
      <trkpt lat="46.05157" lon="3.52589">
        <ele>525</ele>
        <time>2022-01-07T12:09:23Z</time>
      </trkpt>
      <trkpt lat="46.05168" lon="3.52568">
        <ele>523</ele>
        <time>2022-01-07T12:09:47Z</time>
      </trkpt>
      <trkpt lat="46.05176" lon="3.52544">
        <ele>521</ele>
        <time>2022-01-07T12:10:12Z</time>
      </trkpt>
      <trkpt lat="46.05199" lon="3.52487">
        <ele>516</ele>
        <time>2022-01-07T12:11:13Z</time>
      </trkpt>
      <trkpt lat="46.05211" lon="3.52468">
        <ele>515</ele>
        <time>2022-01-07T12:11:37Z</time>
      </trkpt>
      <trkpt lat="46.05227" lon="3.52451">
        <ele>513</ele>
        <time>2022-01-07T12:12:03Z</time>
      </trkpt>
      <trkpt lat="46.05244" lon="3.52441">
        <ele>511</ele>
        <time>2022-01-07T12:12:28Z</time>
      </trkpt>
      <trkpt lat="46.05261" lon="3.52429">
        <ele>510</ele>
        <time>2022-01-07T12:12:53Z</time>
      </trkpt>
      <trkpt lat="46.05298" lon="3.52417">
        <ele>508</ele>
        <time>2022-01-07T12:13:44Z</time>
      </trkpt>
      <trkpt lat="46.05315" lon="3.52409">
        <ele>507</ele>
        <time>2022-01-07T12:14:08Z</time>
      </trkpt>
      <trkpt lat="46.05331" lon="3.52397">
        <ele>505</ele>
        <time>2022-01-07T12:14:32Z</time>
      </trkpt>
      <trkpt lat="46.05346" lon="3.5238">
        <ele>504</ele>
        <time>2022-01-07T12:14:57Z</time>
      </trkpt>
      <trkpt lat="46.05358" lon="3.5236">
        <ele>502</ele>
        <time>2022-01-07T12:15:22Z</time>
      </trkpt>
      <trkpt lat="46.0537" lon="3.5234">
        <ele>501</ele>
        <time>2022-01-07T12:15:46Z</time>
      </trkpt>
      <trkpt lat="46.05378" lon="3.52315">
        <ele>500</ele>
        <time>2022-01-07T12:16:12Z</time>
      </trkpt>
      <trkpt lat="46.0538" lon="3.52288">
        <ele>499</ele>
        <time>2022-01-07T12:16:37Z</time>
      </trkpt>
      <trkpt lat="46.05381" lon="3.52261">
        <ele>499</ele>
        <time>2022-01-07T12:17:02Z</time>
      </trkpt>
      <trkpt lat="46.05377" lon="3.52206">
        <ele>499</ele>
        <time>2022-01-07T12:17:53Z</time>
      </trkpt>
      <trkpt lat="46.05381" lon="3.5218">
        <ele>499</ele>
        <time>2022-01-07T12:18:18Z</time>
      </trkpt>
      <trkpt lat="46.05389" lon="3.52156">
        <ele>500</ele>
        <time>2022-01-07T12:18:42Z</time>
      </trkpt>
      <trkpt lat="46.05399" lon="3.52133">
        <ele>500</ele>
        <time>2022-01-07T12:19:08Z</time>
      </trkpt>
      <trkpt lat="46.05405" lon="3.52106">
        <ele>500</ele>
        <time>2022-01-07T12:19:34Z</time>
      </trkpt>
      <trkpt lat="46.05405" lon="3.52079">
        <ele>500</ele>
        <time>2022-01-07T12:19:59Z</time>
      </trkpt>
      <trkpt lat="46.05405" lon="3.52052">
        <ele>499</ele>
        <time>2022-01-07T12:20:24Z</time>
      </trkpt>
      <trkpt lat="46.05403" lon="3.52025">
        <ele>498</ele>
        <time>2022-01-07T12:20:49Z</time>
      </trkpt>
      <trkpt lat="46.05403" lon="3.51997">
        <ele>497</ele>
        <time>2022-01-07T12:21:15Z</time>
      </trkpt>
      <trkpt lat="46.05402" lon="3.5197">
        <ele>496</ele>
        <time>2022-01-07T12:21:40Z</time>
      </trkpt>
      <trkpt lat="46.0541" lon="3.51948">
        <ele>496</ele>
        <time>2022-01-07T12:22:03Z</time>
      </trkpt>
      <trkpt lat="46.05422" lon="3.51927">
        <ele>495</ele>
        <time>2022-01-07T12:22:28Z</time>
      </trkpt>
      <trkpt lat="46.05452" lon="3.51893">
        <ele>495</ele>
        <time>2022-01-07T12:23:19Z</time>
      </trkpt>
      <trkpt lat="46.05465" lon="3.51875">
        <ele>495</ele>
        <time>2022-01-07T12:23:43Z</time>
      </trkpt>
      <trkpt lat="46.0548" lon="3.5186">
        <ele>495</ele>
        <time>2022-01-07T12:24:07Z</time>
      </trkpt>
      <trkpt lat="46.05496" lon="3.51846">
        <ele>494</ele>
        <time>2022-01-07T12:24:32Z</time>
      </trkpt>
      <trkpt lat="46.05515" lon="3.51845">
        <ele>495</ele>
        <time>2022-01-07T12:24:58Z</time>
      </trkpt>
      <trkpt lat="46.05532" lon="3.51835">
        <ele>495</ele>
        <time>2022-01-07T12:25:22Z</time>
      </trkpt>
      <trkpt lat="46.0555" lon="3.51832">
        <ele>495</ele>
        <time>2022-01-07T12:25:47Z</time>
      </trkpt>
      <trkpt lat="46.05586" lon="3.51848">
        <ele>496</ele>
        <time>2022-01-07T12:26:37Z</time>
      </trkpt>
      <trkpt lat="46.05604" lon="3.51851">
        <ele>495</ele>
        <time>2022-01-07T12:27:01Z</time>
      </trkpt>
      <trkpt lat="46.05621" lon="3.51844">
        <ele>495</ele>
        <time>2022-01-07T12:27:25Z</time>
      </trkpt>
      <trkpt lat="46.05639" lon="3.51836">
        <ele>495</ele>
        <time>2022-01-07T12:27:50Z</time>
      </trkpt>
      <trkpt lat="46.05656" lon="3.51825">
        <ele>496</ele>
        <time>2022-01-07T12:28:15Z</time>
      </trkpt>
      <trkpt lat="46.05686" lon="3.51793">
        <ele>497</ele>
        <time>2022-01-07T12:29:04Z</time>
      </trkpt>
      <trkpt lat="46.057" lon="3.51778">
        <ele>497</ele>
        <time>2022-01-07T12:29:28Z</time>
      </trkpt>
      <trkpt lat="46.05714" lon="3.5177">
        <ele>495</ele>
        <time>2022-01-07T12:29:48Z</time>
      </trkpt>
      <trkpt lat="46.05724" lon="3.51747">
        <ele>494</ele>
        <time>2022-01-07T12:30:13Z</time>
      </trkpt>
      <trkpt lat="46.05724" lon="3.51708">
        <ele>497</ele>
        <time>2022-01-07T12:30:49Z</time>
      </trkpt>
      <trkpt lat="46.05732" lon="3.51684">
        <ele>496</ele>
        <time>2022-01-07T12:31:14Z</time>
      </trkpt>
      <trkpt lat="46.05746" lon="3.51667">
        <ele>493</ele>
        <time>2022-01-07T12:31:38Z</time>
      </trkpt>
      <trkpt lat="46.05755" lon="3.51652">
        <ele>492</ele>
        <time>2022-01-07T12:31:56Z</time>
      </trkpt>
      <trkpt lat="46.05762" lon="3.51637">
        <ele>492</ele>
        <time>2022-01-07T12:32:13Z</time>
      </trkpt>
      <trkpt lat="46.05771" lon="3.51618">
        <ele>493</ele>
        <time>2022-01-07T12:32:34Z</time>
      </trkpt>
      <trkpt lat="46.05788" lon="3.51596">
        <ele>493</ele>
        <time>2022-01-07T12:33:05Z</time>
      </trkpt>
      <trkpt lat="46.05824" lon="3.516">
        <ele>490</ele>
        <time>2022-01-07T12:33:53Z</time>
      </trkpt>
      <trkpt lat="46.05844" lon="3.51592">
        <ele>489</ele>
        <time>2022-01-07T12:34:21Z</time>
      </trkpt>
      <trkpt lat="46.05893" lon="3.51553">
        <ele>493</ele>
        <time>2022-01-07T12:35:36Z</time>
      </trkpt>
      <trkpt lat="46.05905" lon="3.51534">
        <ele>495</ele>
        <time>2022-01-07T12:35:59Z</time>
      </trkpt>
      <trkpt lat="46.05923" lon="3.51528">
        <ele>495</ele>
        <time>2022-01-07T12:36:24Z</time>
      </trkpt>
      <trkpt lat="46.0594" lon="3.5152">
        <ele>496</ele>
        <time>2022-01-07T12:36:48Z</time>
      </trkpt>
      <trkpt lat="46.05959" lon="3.51513">
        <ele>496</ele>
        <time>2022-01-07T12:37:14Z</time>
      </trkpt>
      <trkpt lat="46.05975" lon="3.51497">
        <ele>497</ele>
        <time>2022-01-07T12:37:40Z</time>
      </trkpt>
      <trkpt lat="46.05992" lon="3.51485">
        <ele>497</ele>
        <time>2022-01-07T12:38:05Z</time>
      </trkpt>
      <trkpt lat="46.0601" lon="3.51476">
        <ele>497</ele>
        <time>2022-01-07T12:38:31Z</time>
      </trkpt>
      <trkpt lat="46.06027" lon="3.51467">
        <ele>497</ele>
        <time>2022-01-07T12:38:55Z</time>
      </trkpt>
      <trkpt lat="46.06044" lon="3.51455">
        <ele>497</ele>
        <time>2022-01-07T12:39:20Z</time>
      </trkpt>
      <trkpt lat="46.06054" lon="3.51497">
        <ele>495</ele>
        <time>2022-01-07T12:40:01Z</time>
      </trkpt>
      <trkpt lat="46.0606" lon="3.51522">
        <ele>493</ele>
        <time>2022-01-07T12:40:26Z</time>
      </trkpt>
      <trkpt lat="46.06062" lon="3.51548">
        <ele>490</ele>
        <time>2022-01-07T12:40:50Z</time>
      </trkpt>
      <trkpt lat="46.06062" lon="3.51574">
        <ele>488</ele>
        <time>2022-01-07T12:41:14Z</time>
      </trkpt>
      <trkpt lat="46.0606" lon="3.51591">
        <ele>487</ele>
        <time>2022-01-07T12:41:30Z</time>
      </trkpt>
      <trkpt lat="46.06078" lon="3.51587">
        <ele>487</ele>
        <time>2022-01-07T12:41:54Z</time>
      </trkpt>
      <trkpt lat="46.06094" lon="3.51574">
        <ele>488</ele>
        <time>2022-01-07T12:42:19Z</time>
      </trkpt>
      <trkpt lat="46.06113" lon="3.51573">
        <ele>489</ele>
        <time>2022-01-07T12:42:44Z</time>
      </trkpt>
      <trkpt lat="46.06131" lon="3.51575">
        <ele>489</ele>
        <time>2022-01-07T12:43:08Z</time>
      </trkpt>
      <trkpt lat="46.06147" lon="3.51588">
        <ele>488</ele>
        <time>2022-01-07T12:43:33Z</time>
      </trkpt>
      <trkpt lat="46.06161" lon="3.51605">
        <ele>487</ele>
        <time>2022-01-07T12:43:57Z</time>
      </trkpt>
      <trkpt lat="46.06175" lon="3.51624">
        <ele>486</ele>
        <time>2022-01-07T12:44:23Z</time>
      </trkpt>
      <trkpt lat="46.06182" lon="3.51649">
        <ele>484</ele>
        <time>2022-01-07T12:44:48Z</time>
      </trkpt>
      <trkpt lat="46.06184" lon="3.51675">
        <ele>482</ele>
        <time>2022-01-07T12:45:12Z</time>
      </trkpt>
      <trkpt lat="46.06188" lon="3.51702">
        <ele>481</ele>
        <time>2022-01-07T12:45:38Z</time>
      </trkpt>
      <trkpt lat="46.06191" lon="3.51729">
        <ele>480</ele>
        <time>2022-01-07T12:46:03Z</time>
      </trkpt>
      <trkpt lat="46.06197" lon="3.51755">
        <ele>480</ele>
        <time>2022-01-07T12:46:28Z</time>
      </trkpt>
      <trkpt lat="46.06206" lon="3.51779">
        <ele>480</ele>
        <time>2022-01-07T12:46:54Z</time>
      </trkpt>
      <trkpt lat="46.06218" lon="3.51799">
        <ele>480</ele>
        <time>2022-01-07T12:47:18Z</time>
      </trkpt>
      <trkpt lat="46.06233" lon="3.51817">
        <ele>480</ele>
        <time>2022-01-07T12:47:44Z</time>
      </trkpt>
      <trkpt lat="46.06248" lon="3.51832">
        <ele>479</ele>
        <time>2022-01-07T12:48:08Z</time>
      </trkpt>
      <trkpt lat="46.06268" lon="3.5184">
        <ele>480</ele>
        <time>2022-01-07T12:48:36Z</time>
      </trkpt>
      <trkpt lat="46.06263" lon="3.51877">
        <ele>481</ele>
        <time>2022-01-07T12:49:11Z</time>
      </trkpt>
      <trkpt lat="46.0626" lon="3.51903">
        <ele>481</ele>
        <time>2022-01-07T12:49:36Z</time>
      </trkpt>
      <trkpt lat="46.06262" lon="3.5193">
        <ele>483</ele>
        <time>2022-01-07T12:50:01Z</time>
      </trkpt>
      <trkpt lat="46.06259" lon="3.51956">
        <ele>485</ele>
        <time>2022-01-07T12:50:25Z</time>
      </trkpt>
      <trkpt lat="46.06261" lon="3.51982">
        <ele>487</ele>
        <time>2022-01-07T12:50:49Z</time>
      </trkpt>
      <trkpt lat="46.06258" lon="3.52009">
        <ele>489</ele>
        <time>2022-01-07T12:51:15Z</time>
      </trkpt>
      <trkpt lat="46.06258" lon="3.52036">
        <ele>490</ele>
        <time>2022-01-07T12:51:40Z</time>
      </trkpt>
      <trkpt lat="46.06257" lon="3.52062">
        <ele>491</ele>
        <time>2022-01-07T12:52:04Z</time>
      </trkpt>
      <trkpt lat="46.06254" lon="3.52088">
        <ele>492</ele>
        <time>2022-01-07T12:52:28Z</time>
      </trkpt>
      <trkpt lat="46.06254" lon="3.52114">
        <ele>494</ele>
        <time>2022-01-07T12:52:52Z</time>
      </trkpt>
      <trkpt lat="46.06256" lon="3.5214">
        <ele>497</ele>
        <time>2022-01-07T12:53:16Z</time>
      </trkpt>
      <trkpt lat="46.06261" lon="3.52167">
        <ele>500</ele>
        <time>2022-01-07T12:53:42Z</time>
      </trkpt>
      <trkpt lat="46.06271" lon="3.52189">
        <ele>503</ele>
        <time>2022-01-07T12:54:07Z</time>
      </trkpt>
      <trkpt lat="46.0628" lon="3.52213">
        <ele>505</ele>
        <time>2022-01-07T12:54:32Z</time>
      </trkpt>
      <trkpt lat="46.06291" lon="3.52235">
        <ele>508</ele>
        <time>2022-01-07T12:54:57Z</time>
      </trkpt>
      <trkpt lat="46.06301" lon="3.52258">
        <ele>511</ele>
        <time>2022-01-07T12:55:22Z</time>
      </trkpt>
      <trkpt lat="46.0631" lon="3.52282">
        <ele>513</ele>
        <time>2022-01-07T12:55:47Z</time>
      </trkpt>
      <trkpt lat="46.06319" lon="3.52305">
        <ele>514</ele>
        <time>2022-01-07T12:56:12Z</time>
      </trkpt>
      <trkpt lat="46.06325" lon="3.5233">
        <ele>516</ele>
        <time>2022-01-07T12:56:36Z</time>
      </trkpt>
      <trkpt lat="46.06342" lon="3.52378">
        <ele>518</ele>
        <time>2022-01-07T12:57:26Z</time>
      </trkpt>
      <trkpt lat="46.06351" lon="3.52402">
        <ele>520</ele>
        <time>2022-01-07T12:57:52Z</time>
      </trkpt>
      <trkpt lat="46.06363" lon="3.52422">
        <ele>521</ele>
        <time>2022-01-07T12:58:16Z</time>
      </trkpt>
      <trkpt lat="46.06374" lon="3.52444">
        <ele>521</ele>
        <time>2022-01-07T12:58:41Z</time>
      </trkpt>
      <trkpt lat="46.06392" lon="3.52492">
        <ele>521</ele>
        <time>2022-01-07T12:59:32Z</time>
      </trkpt>
      <trkpt lat="46.06401" lon="3.52516">
        <ele>522</ele>
        <time>2022-01-07T12:59:57Z</time>
      </trkpt>
      <trkpt lat="46.06409" lon="3.52541">
        <ele>524</ele>
        <time>2022-01-07T13:00:22Z</time>
      </trkpt>
      <trkpt lat="46.06415" lon="3.52566">
        <ele>525</ele>
        <time>2022-01-07T13:00:47Z</time>
      </trkpt>
      <trkpt lat="46.06419" lon="3.52593">
        <ele>526</ele>
        <time>2022-01-07T13:01:12Z</time>
      </trkpt>
      <trkpt lat="46.0642" lon="3.5262">
        <ele>527</ele>
        <time>2022-01-07T13:01:37Z</time>
      </trkpt>
      <trkpt lat="46.06424" lon="3.52645">
        <ele>527</ele>
        <time>2022-01-07T13:02:01Z</time>
      </trkpt>
      <trkpt lat="46.0643" lon="3.52671">
        <ele>527</ele>
        <time>2022-01-07T13:02:27Z</time>
      </trkpt>
      <trkpt lat="46.06438" lon="3.52696">
        <ele>527</ele>
        <time>2022-01-07T13:02:52Z</time>
      </trkpt>
      <trkpt lat="46.0645" lon="3.52715">
        <ele>528</ele>
        <time>2022-01-07T13:03:16Z</time>
      </trkpt>
      <trkpt lat="46.06465" lon="3.52732">
        <ele>528</ele>
        <time>2022-01-07T13:03:41Z</time>
      </trkpt>
      <trkpt lat="46.06475" lon="3.52754">
        <ele>528</ele>
        <time>2022-01-07T13:04:06Z</time>
      </trkpt>
      <trkpt lat="46.06481" lon="3.5278">
        <ele>528</ele>
        <time>2022-01-07T13:04:31Z</time>
      </trkpt>
      <trkpt lat="46.06491" lon="3.52803">
        <ele>527</ele>
        <time>2022-01-07T13:04:56Z</time>
      </trkpt>
      <trkpt lat="46.06501" lon="3.52824">
        <ele>527</ele>
        <time>2022-01-07T13:05:20Z</time>
      </trkpt>
      <trkpt lat="46.06503" lon="3.52851">
        <ele>527</ele>
        <time>2022-01-07T13:05:45Z</time>
      </trkpt>
      <trkpt lat="46.06506" lon="3.52878">
        <ele>526</ele>
        <time>2022-01-07T13:06:10Z</time>
      </trkpt>
      <trkpt lat="46.06507" lon="3.52905">
        <ele>525</ele>
        <time>2022-01-07T13:06:35Z</time>
      </trkpt>
      <trkpt lat="46.0651" lon="3.52923">
        <ele>525</ele>
        <time>2022-01-07T13:06:52Z</time>
      </trkpt>
      <trkpt lat="46.06494" lon="3.52924">
        <ele>525</ele>
        <time>2022-01-07T13:07:14Z</time>
      </trkpt>
      <trkpt lat="46.06477" lon="3.52938">
        <ele>524</ele>
        <time>2022-01-07T13:07:40Z</time>
      </trkpt>
      <trkpt lat="46.06463" lon="3.52957">
        <ele>523</ele>
        <time>2022-01-07T13:08:06Z</time>
      </trkpt>
      <trkpt lat="46.06452" lon="3.52978">
        <ele>523</ele>
        <time>2022-01-07T13:08:30Z</time>
      </trkpt>
      <trkpt lat="46.06441" lon="3.53">
        <ele>523</ele>
        <time>2022-01-07T13:08:55Z</time>
      </trkpt>
      <trkpt lat="46.06427" lon="3.53018">
        <ele>522</ele>
        <time>2022-01-07T13:09:20Z</time>
      </trkpt>
      <trkpt lat="46.06409" lon="3.53025">
        <ele>522</ele>
        <time>2022-01-07T13:09:45Z</time>
      </trkpt>
      <trkpt lat="46.06391" lon="3.53022">
        <ele>523</ele>
        <time>2022-01-07T13:10:09Z</time>
      </trkpt>
      <trkpt lat="46.06373" lon="3.53018">
        <ele>523</ele>
        <time>2022-01-07T13:10:33Z</time>
      </trkpt>
      <trkpt lat="46.06354" lon="3.53018">
        <ele>523</ele>
        <time>2022-01-07T13:10:59Z</time>
      </trkpt>
      <trkpt lat="46.06335" lon="3.53017">
        <ele>524</ele>
        <time>2022-01-07T13:11:24Z</time>
      </trkpt>
      <trkpt lat="46.06316" lon="3.53013">
        <ele>523</ele>
        <time>2022-01-07T13:11:50Z</time>
      </trkpt>
      <trkpt lat="46.06298" lon="3.5301">
        <ele>523</ele>
        <time>2022-01-07T13:12:14Z</time>
      </trkpt>
      <trkpt lat="46.06281" lon="3.53001">
        <ele>522</ele>
        <time>2022-01-07T13:12:38Z</time>
      </trkpt>
      <trkpt lat="46.06264" lon="3.5299">
        <ele>522</ele>
        <time>2022-01-07T13:13:03Z</time>
      </trkpt>
      <trkpt lat="46.06246" lon="3.52983">
        <ele>521</ele>
        <time>2022-01-07T13:13:28Z</time>
      </trkpt>
      <trkpt lat="46.06228" lon="3.52978">
        <ele>522</ele>
        <time>2022-01-07T13:13:52Z</time>
      </trkpt>
      <trkpt lat="46.0621" lon="3.52972">
        <ele>522</ele>
        <time>2022-01-07T13:14:17Z</time>
      </trkpt>
      <trkpt lat="46.06173" lon="3.52967">
        <ele>523</ele>
        <time>2022-01-07T13:15:07Z</time>
      </trkpt>
      <trkpt lat="46.06155" lon="3.52966">
        <ele>524</ele>
        <time>2022-01-07T13:15:31Z</time>
      </trkpt>
      <trkpt lat="46.06137" lon="3.52971">
        <ele>524</ele>
        <time>2022-01-07T13:15:55Z</time>
      </trkpt>
      <trkpt lat="46.06119" lon="3.52981">
        <ele>525</ele>
        <time>2022-01-07T13:16:21Z</time>
      </trkpt>
      <trkpt lat="46.06067" lon="3.53007">
        <ele>525</ele>
        <time>2022-01-07T13:17:34Z</time>
      </trkpt>
      <trkpt lat="46.06049" lon="3.53015">
        <ele>524</ele>
        <time>2022-01-07T13:17:59Z</time>
      </trkpt>
      <trkpt lat="46.06034" lon="3.53031">
        <ele>524</ele>
        <time>2022-01-07T13:18:24Z</time>
      </trkpt>
      <trkpt lat="46.06009" lon="3.53071">
        <ele>525</ele>
        <time>2022-01-07T13:19:14Z</time>
      </trkpt>
      <trkpt lat="46.05994" lon="3.53084">
        <ele>525</ele>
        <time>2022-01-07T13:19:38Z</time>
      </trkpt>
      <trkpt lat="46.05976" lon="3.53089">
        <ele>525</ele>
        <time>2022-01-07T13:20:02Z</time>
      </trkpt>
      <trkpt lat="46.05957" lon="3.53089">
        <ele>525</ele>
        <time>2022-01-07T13:20:27Z</time>
      </trkpt>
      <trkpt lat="46.05939" lon="3.53093">
        <ele>525</ele>
        <time>2022-01-07T13:20:52Z</time>
      </trkpt>
      <trkpt lat="46.05921" lon="3.53107">
        <ele>525</ele>
        <time>2022-01-07T13:21:19Z</time>
      </trkpt>
      <trkpt lat="46.05906" lon="3.53122">
        <ele>524</ele>
        <time>2022-01-07T13:21:43Z</time>
      </trkpt>
      <trkpt lat="46.05894" lon="3.53142">
        <ele>524</ele>
        <time>2022-01-07T13:22:08Z</time>
      </trkpt>
      <trkpt lat="46.05884" lon="3.53163">
        <ele>523</ele>
        <time>2022-01-07T13:22:31Z</time>
      </trkpt>
      <trkpt lat="46.0588" lon="3.53188">
        <ele>523</ele>
        <time>2022-01-07T13:22:55Z</time>
      </trkpt>
      <trkpt lat="46.05874" lon="3.53215">
        <ele>523</ele>
        <time>2022-01-07T13:23:21Z</time>
      </trkpt>
      <trkpt lat="46.05864" lon="3.53239">
        <ele>523</ele>
        <time>2022-01-07T13:23:47Z</time>
      </trkpt>
      <trkpt lat="46.05851" lon="3.53257">
        <ele>522</ele>
        <time>2022-01-07T13:24:11Z</time>
      </trkpt>
      <trkpt lat="46.05839" lon="3.53277">
        <ele>522</ele>
        <time>2022-01-07T13:24:36Z</time>
      </trkpt>
      <trkpt lat="46.05827" lon="3.53299">
        <ele>522</ele>
        <time>2022-01-07T13:25:02Z</time>
      </trkpt>
      <trkpt lat="46.05817" lon="3.5332">
        <ele>522</ele>
        <time>2022-01-07T13:25:25Z</time>
      </trkpt>
      <trkpt lat="46.05807" lon="3.53344">
        <ele>522</ele>
        <time>2022-01-07T13:25:51Z</time>
      </trkpt>
      <trkpt lat="46.05797" lon="3.5335">
        <ele>522</ele>
        <time>2022-01-07T13:26:06Z</time>
      </trkpt>
      <trkpt lat="46.05801" lon="3.53369">
        <ele>522</ele>
        <time>2022-01-07T13:26:24Z</time>
      </trkpt>
      <trkpt lat="46.05791" lon="3.53391">
        <ele>523</ele>
        <time>2022-01-07T13:26:48Z</time>
      </trkpt>
      <trkpt lat="46.05782" lon="3.53416">
        <ele>524</ele>
        <time>2022-01-07T13:27:15Z</time>
      </trkpt>
      <trkpt lat="46.05775" lon="3.53443">
        <ele>523</ele>
        <time>2022-01-07T13:27:41Z</time>
      </trkpt>
      <trkpt lat="46.0577" lon="3.53468">
        <ele>523</ele>
        <time>2022-01-07T13:28:05Z</time>
      </trkpt>
      <trkpt lat="46.0577" lon="3.53494">
        <ele>522</ele>
        <time>2022-01-07T13:28:29Z</time>
      </trkpt>
      <trkpt lat="46.05773" lon="3.53575">
        <ele>516</ele>
        <time>2022-01-07T13:29:45Z</time>
      </trkpt>
      <trkpt lat="46.05771" lon="3.53601">
        <ele>513</ele>
        <time>2022-01-07T13:30:09Z</time>
      </trkpt>
      <trkpt lat="46.05776" lon="3.53627">
        <ele>510</ele>
        <time>2022-01-07T13:30:34Z</time>
      </trkpt>
      <trkpt lat="46.05786" lon="3.53649">
        <ele>510</ele>
        <time>2022-01-07T13:30:58Z</time>
      </trkpt>
      <trkpt lat="46.0579" lon="3.53675">
        <ele>507</ele>
        <time>2022-01-07T13:31:23Z</time>
      </trkpt>
      <trkpt lat="46.05796" lon="3.53701">
        <ele>505</ele>
        <time>2022-01-07T13:31:48Z</time>
      </trkpt>
      <trkpt lat="46.05802" lon="3.53727">
        <ele>502</ele>
        <time>2022-01-07T13:32:13Z</time>
      </trkpt>
      <trkpt lat="46.05806" lon="3.53753">
        <ele>498</ele>
        <time>2022-01-07T13:32:38Z</time>
      </trkpt>
      <trkpt lat="46.05812" lon="3.53778">
        <ele>496</ele>
        <time>2022-01-07T13:33:03Z</time>
      </trkpt>
      <trkpt lat="46.0582" lon="3.53803">
        <ele>494</ele>
        <time>2022-01-07T13:33:28Z</time>
      </trkpt>
      <trkpt lat="46.05829" lon="3.53825">
        <ele>492</ele>
        <time>2022-01-07T13:33:52Z</time>
      </trkpt>
      <trkpt lat="46.05847" lon="3.53872">
        <ele>489</ele>
        <time>2022-01-07T13:34:42Z</time>
      </trkpt>
      <trkpt lat="46.05851" lon="3.53898">
        <ele>487</ele>
        <time>2022-01-07T13:35:06Z</time>
      </trkpt>
      <trkpt lat="46.05848" lon="3.53925">
        <ele>485</ele>
        <time>2022-01-07T13:35:31Z</time>
      </trkpt>
      <trkpt lat="46.05839" lon="3.53948">
        <ele>484</ele>
        <time>2022-01-07T13:35:56Z</time>
      </trkpt>
      <trkpt lat="46.05832" lon="3.53974">
        <ele>483</ele>
        <time>2022-01-07T13:36:22Z</time>
      </trkpt>
      <trkpt lat="46.05817" lon="3.54002">
        <ele>481</ele>
        <time>2022-01-07T13:36:55Z</time>
      </trkpt>
      <trkpt lat="46.05821" lon="3.54029">
        <ele>481</ele>
        <time>2022-01-07T13:37:20Z</time>
      </trkpt>
      <trkpt lat="46.05835" lon="3.54051">
        <ele>481</ele>
        <time>2022-01-07T13:37:48Z</time>
      </trkpt>
      <trkpt lat="46.05823" lon="3.54073">
        <ele>480</ele>
        <time>2022-01-07T13:38:14Z</time>
      </trkpt>
      <trkpt lat="46.05813" lon="3.54095">
        <ele>480</ele>
        <time>2022-01-07T13:38:38Z</time>
      </trkpt>
      <trkpt lat="46.05804" lon="3.54119">
        <ele>482</ele>
        <time>2022-01-07T13:39:03Z</time>
      </trkpt>
      <trkpt lat="46.0579" lon="3.54136">
        <ele>482</ele>
        <time>2022-01-07T13:39:28Z</time>
      </trkpt>
      <trkpt lat="46.05779" lon="3.54157">
        <ele>484</ele>
        <time>2022-01-07T13:39:52Z</time>
      </trkpt>
      <trkpt lat="46.05762" lon="3.54191">
        <ele>485</ele>
        <time>2022-01-07T13:40:31Z</time>
      </trkpt>
      <trkpt lat="46.0577" lon="3.54208">
        <ele>485</ele>
        <time>2022-01-07T13:40:50Z</time>
      </trkpt>
      <trkpt lat="46.05764" lon="3.54233">
        <ele>485</ele>
        <time>2022-01-07T13:41:14Z</time>
      </trkpt>
      <trkpt lat="46.05766" lon="3.5426">
        <ele>486</ele>
        <time>2022-01-07T13:41:40Z</time>
      </trkpt>
      <trkpt lat="46.05768" lon="3.54286">
        <ele>486</ele>
        <time>2022-01-07T13:42:04Z</time>
      </trkpt>
      <trkpt lat="46.05768" lon="3.54313">
        <ele>486</ele>
        <time>2022-01-07T13:42:29Z</time>
      </trkpt>
      <trkpt lat="46.0577" lon="3.54339">
        <ele>487</ele>
        <time>2022-01-07T13:42:53Z</time>
      </trkpt>
      <trkpt lat="46.05769" lon="3.54366">
        <ele>488</ele>
        <time>2022-01-07T13:43:18Z</time>
      </trkpt>
      <trkpt lat="46.0577" lon="3.54393">
        <ele>490</ele>
        <time>2022-01-07T13:43:43Z</time>
      </trkpt>
      <trkpt lat="46.05774" lon="3.5442">
        <ele>490</ele>
        <time>2022-01-07T13:44:09Z</time>
      </trkpt>
      <trkpt lat="46.05782" lon="3.54443">
        <ele>491</ele>
        <time>2022-01-07T13:44:32Z</time>
      </trkpt>
      <trkpt lat="46.05787" lon="3.54469">
        <ele>491</ele>
        <time>2022-01-07T13:44:57Z</time>
      </trkpt>
      <trkpt lat="46.05787" lon="3.54496">
        <ele>493</ele>
        <time>2022-01-07T13:45:22Z</time>
      </trkpt>
      <trkpt lat="46.05783" lon="3.54522">
        <ele>495</ele>
        <time>2022-01-07T13:45:47Z</time>
      </trkpt>
      <trkpt lat="46.05776" lon="3.54547">
        <ele>497</ele>
        <time>2022-01-07T13:46:12Z</time>
      </trkpt>
      <trkpt lat="46.05765" lon="3.54569">
        <ele>501</ele>
        <time>2022-01-07T13:46:37Z</time>
      </trkpt>
      <trkpt lat="46.05759" lon="3.54594">
        <ele>502</ele>
        <time>2022-01-07T13:47:02Z</time>
      </trkpt>
      <trkpt lat="46.05758" lon="3.54622">
        <ele>501</ele>
        <time>2022-01-07T13:47:28Z</time>
      </trkpt>
      <trkpt lat="46.05761" lon="3.54649">
        <ele>499</ele>
        <time>2022-01-07T13:47:53Z</time>
      </trkpt>
      <trkpt lat="46.05765" lon="3.54675">
        <ele>498</ele>
        <time>2022-01-07T13:48:18Z</time>
      </trkpt>
      <trkpt lat="46.05776" lon="3.54697">
        <ele>497</ele>
        <time>2022-01-07T13:48:43Z</time>
      </trkpt>
      <trkpt lat="46.05788" lon="3.54717">
        <ele>497</ele>
        <time>2022-01-07T13:49:07Z</time>
      </trkpt>
      <trkpt lat="46.05789" lon="3.54745">
        <ele>497</ele>
        <time>2022-01-07T13:49:33Z</time>
      </trkpt>
      <trkpt lat="46.05787" lon="3.5476">
        <ele>498</ele>
        <time>2022-01-07T13:49:47Z</time>
      </trkpt>
      <trkpt lat="46.05784" lon="3.54772">
        <ele>498</ele>
        <time>2022-01-07T13:49:59Z</time>
      </trkpt>
      <trkpt lat="46.0578" lon="3.54782">
        <ele>498</ele>
        <time>2022-01-07T13:50:10Z</time>
      </trkpt>
      <trkpt lat="46.05783" lon="3.5479">
        <ele>498</ele>
        <time>2022-01-07T13:50:18Z</time>
      </trkpt>
      <trkpt lat="46.05783" lon="3.548">
        <ele>498</ele>
        <time>2022-01-07T13:50:27Z</time>
      </trkpt>
      <trkpt lat="46.0579" lon="3.54813">
        <ele>498</ele>
        <time>2022-01-07T13:50:43Z</time>
      </trkpt>
      <trkpt lat="46.05797" lon="3.54829">
        <ele>498</ele>
        <time>2022-01-07T13:51:00Z</time>
      </trkpt>
    </trkseg>
  </trk>
</gpx>